• Join FlightAware (Why Join?)
  • Login
  • US Flag 
08:00AM EDT


 

Airport Tracker/Info


-or-


 

Live Flight TrackerFlight Track Log ✈ NKS406 ✈ 26-May-2013 ✈ KDFW - KMCO

Flight Track Log - Related Links

Times and Time Zones

All times are in EDT time to prevent confusion due to time zone crossing. See the NKS406 flight status page for this flight to view local times or setup timezone preferences in your user account.

Time Position Orientation Groundspeed Altitude Reporting Facility
EDT Latitude Longitude Course Direction KTS MPH feet Rate Location/Type
08:05AM 32.8680 -97.0240 161° South 156 180 2,100  Level FlightAware
08:06AM 32.8430 -97.0150 163° South 200 230 2,800 1,860 Climbing FlightAware
08:06AM 32.8150 -97.0030 160° South 244 281 3,900 2,700 Climbing FlightAware
08:07AM 32.8030 -96.9950 151° Southeast 251 289 4,600 3,660 Climbing FlightAware
08:07AM 32.7910 -96.9820 138° Southeast 262 302 5,500 3,540 Climbing FlightAware
08:07AM 32.7840 -96.9650 116° Southeast 273 314 6,200 3,360 Climbing FlightAware
08:07AM 32.7810 -96.9510 104° East 282 325 6,800 3,600 Climbing FlightAware
08:08AM 32.7870 -96.8990 82° East 293 337 8,800 3,240 Climbing FlightAware
08:08AM 32.7970 -96.8290 80° East 314 361 10,900 2,460 Climbing FlightAware
08:09AM 32.8070 -96.7500 81° East 349 402 12,400 2,340 Climbing FlightAware
08:10AM 32.8170 -96.6750 81° East 366 421 14,100 2,520 Climbing FlightAware
08:11AM 32.8300 -96.5870 80° East 379 436 15,900 2,160 Climbing FlightAware
08:11AM 32.8410 -96.4980 82° East 398 458 17,200 2,220 Climbing FlightAware
08:12AM 32.8530 -96.4100 81° East 400 460 19,000 2,280 Climbing FlightAware
08:13AM 32.8640 -96.3130 82° East 411 473 20,500 1,740 Climbing FlightAware
08:13AM 32.8660 -96.2220 88° East 429 494 21,500 1,800 Climbing FlightAware
08:14AM 32.8691 -96.1048 88° East 430 495 23,200 1,800 Climbing FlightAware ADS-B
08:15AM 32.8711 -96.0179 88° East 434 499 24,100 1,800 Climbing FlightAware ADS-B
08:15AM 32.8730 -95.9120 89° East 442 509 25,600 1,740 Climbing FlightAware ADS-B
08:16AM 32.8744 -95.8362 89° East 452 520 26,300 1,440 Climbing FlightAware ADS-B
08:17AM 32.8770 -95.6544 89° East 466 536 28,100 1,380 Climbing FlightAware ADS-B
08:18AM 32.8786 -95.5346 89° East 474 545 29,100 1,260 Climbing FlightAware ADS-B
08:19AM 32.8803 -95.3980 89° East 477 549 30,200 1,320 Climbing FlightAware ADS-B
08:19AM 32.8900 -95.3080 83° East 482 555 31,000 1,500 Climbing FlightAware
08:19AM 32.8934 -95.2862 79° East 485 558 31,300 1,560 Climbing FlightAware ADS-B
08:20AM 32.9070 -95.1990 79° East 481 554 32,100 1,380 Climbing FlightAware
08:21AM 32.9247 -95.0794 80° East 481 554 33,200 1,560 Climbing FlightAware ADS-B
08:21AM 32.9366 -95.0003 80° East 475 547 34,100 1,560 Climbing FlightAware ADS-B
08:22AM 32.9482 -94.9232 80° East 472 543 34,800 1,200 Climbing FlightAware ADS-B
08:23AM 32.9720 -94.7650 80° East 475 547 36,000 1,140 Climbing FlightAware
08:24AM 32.9890 -94.6510 80° East 471 542 36,900 720 Climbing FlightAware
08:24AM 33.0020 -94.5590 80° East 471 542 37,000 60 Climbing FlightAware
08:25AM 33.0223 -94.4240 80° East 472 543 37,000  Level FlightAware ADS-B
08:26AM 33.0450 -94.2670 80° East 472 543 37,000  Level FlightAware
08:27AM 33.0650 -94.1340 80° East 473 544 37,000  Level FlightAware
08:28AM 33.0870 -93.9740 81° East 474 545 37,000  Level FlightAware
08:29AM 33.0980 -93.9050 79° East 474 545 37,000  Level FlightAware
08:29AM 33.1111 -93.7752 83° East 478 550 37,000  Level FlightAware ADS-B
08:30AM 33.1050 -93.7302 99° East 480 552 37,000  Level FlightAware ADS-B
08:30AM 33.0974 -93.6912 103° East 480 552 37,000  Level FlightAware ADS-B
08:30AM 33.0840 -93.6240 103° East 479 551 37,000  Level FlightAware
08:31AM 33.0690 -93.5430 102° East 479 551 37,000  Level FlightAware
08:32AM 33.0530 -93.4640 104° East 479 551 37,000  Level FlightAware
08:32AM 33.0330 -93.3590 103° East 479 551 37,000  Level FlightAware
08:33AM 33.0166 -93.2358 99° East 486 559 37,000  Level FlightAware ADS-B
08:33AM 33.0011 -93.1521 102° East 486 559 37,000  Level FlightAware ADS-B
08:34AM 32.9683 -92.9655 102° East 486 559 37,000  Level FlightAware ADS-B
08:35AM 32.9533 -92.8855 103° East 487 560 37,000  Level FlightAware ADS-B
08:36AM 32.9386 -92.7972 103° East 485 558 37,000  Level Fort Worth Center
08:37AM 32.9119 -92.6403 101° East 485 558 37,000  Level Fort Worth Center
08:38AM 32.8828 -92.4836 102° East 485 558 37,000  Level Fort Worth Center
08:39AM 32.8536 -92.3269 102° East 485 558 37,000  Level Fort Worth Center
08:40AM 32.8083 -92.0825 102° East 477 549 37,000  Level Memphis Center
08:41AM 32.7686 -91.9261 107° East 477 549 37,000  Level Memphis Center
08:42AM 32.7414 -91.7700 102° East 477 549 37,000  Level Memphis Center
08:43AM 32.7094 -91.6092 103° East 482 555 37,000  Level Memphis Center
08:44AM 32.6797 -91.4531 103° East 487 560 37,000  Level Memphis Center
08:45AM 32.6497 -91.2950 103° East 487 560 37,000  Level Memphis Center
08:46AM 32.6153 -91.1367 104° East 487 560 37,000  Level Memphis Center
08:47AM 32.5847 -90.9786 103° East 487 560 37,000  Level Memphis Center
08:48AM 32.5542 -90.8206 103° East 487 560 37,000  Level Memphis Center
08:49AM 32.5214 -90.6628 104° East 492 566 37,000  Level Memphis Center
08:50AM 32.4903 -90.5075 103° East 487 560 37,000  Level Memphis Center
08:51AM 32.4589 -90.3525 103° East 487 560 37,000  Level Memphis Center
08:52AM 32.4256 -90.1950 104° East 487 560 37,000  Level Memphis Center
08:53AM 32.3917 -90.0203 103° East 494 568 37,000  Level Memphis Center
08:54AM 32.3578 -89.8656 104° East 494 568 37,000  Level Memphis Center
08:55AM 32.3258 -89.7083 103° East 489 563 37,000  Level Memphis Center
08:56AM 32.2936 -89.5536 104° East 489 563 37,000  Level Memphis Center
09:02AM 32.0900 -88.6190 104° East 489 563 37,000  Level FlightAware
09:03AM 32.0660 -88.5070 104° East 489 563 37,000  Level FlightAware
09:04AM 32.0470 -88.4190 104° East 489 563 37,000  Level FlightAware
09:05AM 32.0190 -88.2850 104° East 489 563 37,000  Level FlightAware
09:05AM 32.0010 -88.2010 104° East 489 563 37,000  Level FlightAware
09:06AM 31.9610 -88.0420 106° East 491 565 37,000  Level FlightAware
09:07AM 31.9370 -87.9370 105° East 491 565 37,000  Level FlightAware
09:07AM 31.9140 -87.8330 105° East 491 565 37,000  Level FlightAware
09:08AM 31.8830 -87.6950 105° East 491 565 37,000  Level FlightAware
09:09AM 31.8600 -87.5870 104° East 491 565 37,000  Level FlightAware
09:10AM 31.8450 -87.5120 103° East 491 565 37,000  Level FlightAware
09:10AM 31.8250 -87.4200 104° East 491 565 37,000  Level FlightAware
09:11AM 31.8070 -87.3360 104° East 491 565 37,000  Level FlightAware
09:12AM 31.7790 -87.2040 104° East 491 565 37,000  Level FlightAware
09:13AM 31.7630 -87.1290 104° East 491 565 37,000  Level FlightAware
09:13AM 31.7400 -87.0210 104° East 491 565 37,000  Level FlightAware
09:14AM 31.7240 -86.9410 103° East 491 565 37,000  Level FlightAware
09:15AM 31.7010 -86.8330 104° East 491 565 37,000  Level FlightAware
09:16AM 31.6740 -86.7080 104° East 491 565 37,000  Level FlightAware
09:16AM 31.6570 -86.6290 104° East 491 565 37,000  Level FlightAware
09:17AM 31.6400 -86.5470 104° East 491 565 37,000  Level FlightAware
09:18AM 31.6170 -86.4420 104° East 491 565 37,000  Level FlightAware
09:18AM 31.5242 -86.1972 104° East 495 570 37,000  Level Jacksonville Center
09:19AM 31.4867 -86.0400 106° East 495 570 37,000  Level Jacksonville Center
09:20AM 31.4486 -85.8831 106° East 495 570 37,000  Level Jacksonville Center
09:21AM 31.4103 -85.7308 106° East 495 570 37,000  Level Jacksonville Center
09:22AM 31.3700 -85.5739 107° East 501 577 37,000  Level Jacksonville Center
09:28AM 31.0900 -84.6540 107° East 498 573 37,000  Level FlightAware
09:29AM 31.0560 -84.5820 119° Southeast 498 573 37,000  Level FlightAware
09:29AM 31.0130 -84.4900 119° Southeast 498 573 37,000  Level FlightAware
09:30AM 30.9730 -84.4060 119° Southeast 498 573 37,000  Level FlightAware
09:31AM 30.9370 -84.3320 120° Southeast 498 573 37,000  Level FlightAware
09:32AM 30.8920 -84.2360 119° Southeast 498 573 37,000  Level FlightAware
09:32AM 30.8560 -84.1600 119° Southeast 498 573 37,000  Level FlightAware
09:33AM 30.8090 -84.0620 119° Southeast 498 573 37,000  Level FlightAware
09:34AM 30.7750 -83.9910 119° Southeast 498 573 37,000  Level FlightAware
09:34AM 30.7300 -83.8950 119° Southeast 498 573 37,000  Level FlightAware
09:35AM 30.6910 -83.8130 119° Southeast 498 573 37,000  Level FlightAware
09:36AM 30.6560 -83.7420 120° Southeast 498 573 37,000  Level FlightAware
09:37AM 30.6110 -83.6460 119° Southeast 498 573 37,000  Level FlightAware
09:37AM 30.5770 -83.5740 119° Southeast 498 573 37,000 -6,480 Level FlightAware
09:38AM 30.3431 -83.3356 119° Southeast 484 557 27,000 -5,160 Descending Jacksonville Center
09:39AM 30.2828 -83.1883 115° Southeast 485 558 27,000 -420 Level Jacksonville Center
09:40AM 30.2142 -83.0561 121° Southeast 485 558 26,200 -1,080 Descending Jacksonville Center
09:41AM 30.1058 -82.9622 143° Southeast 479 551 24,900 -780 Descending Jacksonville Center
09:47AM 29.4510 -82.4050 143° Southeast 455 524 20,700 -900 Descending FlightAware
09:48AM 29.3830 -82.3490 144° Southeast 443 510 19,000 -1,680 Descending FlightAware
09:49AM 29.3180 -82.2930 143° Southeast 434 499 18,300 -1,620 Descending FlightAware
09:49AM 29.2540 -82.2400 144° Southeast 418 481 16,700 -1,260 Descending FlightAware
09:50AM 29.2070 -82.1990 143° Southeast 418 481 16,700 -3,120 Level FlightAware
09:51AM 29.1050 -82.1150 144° Southeast 384 442 11,800 -3,660 Descending FlightAware
09:52AM 29.0530 -82.0720 144° Southeast 375 432 10,800 -780 Descending FlightAware
09:52AM 29.0060 -82.0320 143° Southeast 375 432 10,800 -120 Level FlightAware
09:53AM 28.9180 -81.9600 144° Southeast 375 432 10,700 -120 Descending FlightAware
09:54AM 28.8750 -81.9160 138° Southeast 372 428 10,700 -660 Level FlightAware
09:54AM 28.8340 -81.8450 123° Southeast 370 426 9,900 -360 Descending FlightAware
09:56AM 28.7550 -81.7070 123° Southeast 370 426 9,900 -60 Level FlightAware
09:58AM 28.6420 -81.4970 121° Southeast 350 403 9,700 -120 Descending FlightAware
09:59AM 28.6210 -81.4580 122° Southeast 316 364 9,700  Level FlightAware
09:59AM 28.6080 -81.4380 127° Southeast 298 343 9,700 -240 Level FlightAware
09:59AM 28.5970 -81.4300 147° Southeast 293 337 9,600 -960 Descending FlightAware
10:00AM 28.5750 -81.4240 167° South 294 338 9,300 -960 Descending FlightAware
10:00AM 28.5460 -81.4240 180° South 284 327 8,800 -1,140 Descending FlightAware
10:01AM 28.4760 -81.4240 180° South 243 280 8,100 -1,740 Descending FlightAware
10:01AM 28.4470 -81.4240 180° South 248 285 7,300 -1,620 Descending FlightAware
10:01AM 28.4300 -81.4240 180° South 248 285 6,900 -600 Descending FlightAware
10:02AM 28.3920 -81.4240 180° South 243 280 6,700 -1,920 Descending FlightAware
10:03AM 28.2833 -81.3833 180° South 227 261 3,400 -2,100 Descending Orlando TRACON
10:04AM 28.3167 -81.3333 53° Northeast 210 242 2,100 -1,200 Descending Orlando TRACON
10:05AM 28.3667 -81.3333 360° North 179 206 1,100 -900 Descending Orlando TRACON
10:06AM 28.4000 -81.3333 360° North 129 148 300 -840 Descending Orlando TRACON
10:08AM 28.4167 -81.3000 24° Northeast  Level FlightAware Approximate
10:15AM 28.4294 -81.3090 24° Northeast  Level Estimated
10:16AM 28.4294 -81.3090 24° Northeast  Level Estimated
10:17AM 28.4294 -81.3090 24° Northeast  Level Estimated
10:18AM 28.4294 -81.3090 24° Northeast  Level Estimated